Time;durP1;ratioP1;P1;durP2;ratioP2;P2;SDS_P1;SDS_P2;PMS_P1;PMS_P2;Temp;Humidity;BMP_temperature;BMP_pressure;BME280_temperature;BME280_humidity;BME280_pressure;Samples;Min_cycle;Max_cycle;Signal;HPM_P1;HPM_P2
2022/10/24 00:00:26;;;;;;;4.38;1.17;;;20.30;99.90;;;;;;5054543;28;20212;-59
2022/10/24 00:02:54;;;;;;;5.38;1.35;;;20.30;99.90;;;;;;5054428;28;20209;-59
2022/10/24 00:05:21;;;;;;;5.10;1.40;;;20.20;99.90;;;;;;5053832;28;20237;-59
2022/10/24 00:07:49;;;;;;;5.35;1.50;;;20.20;99.90;;;;;;5054326;28;20576;-59
2022/10/24 00:10:16;;;;;;;7.85;1.30;;;20.10;99.90;;;;;;5054159;28;20224;-60
2022/10/24 00:12:43;;;;;;;3.42;1.45;;;20.00;99.90;;;;;;5054176;28;20609;-59
2022/10/24 00:15:11;;;;;;;5.50;1.27;;;20.00;99.90;;;;;;5053692;28;20229;-58
2022/10/24 00:17:38;;;;;;;4.32;1.20;;;19.90;99.90;;;;;;5054626;28;20284;-58
2022/10/24 00:20:07;;;;;;;3.08;1.23;;;19.80;99.90;;;;;;5054117;28;20583;-57
2022/10/24 00:22:34;;;;;;;5.28;1.50;;;19.80;99.90;;;;;;5054399;28;20204;-58
2022/10/24 00:25:01;;;;;;;6.30;1.70;;;19.70;99.90;;;;;;5053789;28;20206;-58
2022/10/24 00:27:27;;;;;;;5.97;1.45;;;19.60;99.90;;;;;;5054195;28;20232;-58
2022/10/24 00:29:54;;;;;;;7.35;1.58;;;19.50;99.90;;;;;;5054056;28;20217;-58
2022/10/24 00:32:21;;;;;;;6.30;1.55;;;19.50;99.90;;;;;;5054080;28;20228;-57
2022/10/24 00:34:47;;;;;;;5.10;1.23;;;19.40;99.90;;;;;;5053440;28;20743;-58
2022/10/24 00:37:15;;;;;;;4.45;1.23;;;19.40;99.90;;;;;;5053647;28;20581;-58
2022/10/24 00:39:42;;;;;;;5.43;1.27;;;19.30;99.90;;;;;;5053903;28;20216;-58
2022/10/24 00:42:10;;;;;;;4.65;1.55;;;19.30;99.90;;;;;;5053735;28;20214;-58
2022/10/24 00:44:38;;;;;;;4.88;1.65;;;19.30;99.90;;;;;;5052979;28;20206;-58
2022/10/24 00:47:10;;;;;;;6.60;1.30;;;19.20;99.90;;;;;;5052063;28;20725;-57
2022/10/24 00:49:43;;;;;;;5.63;1.60;;;19.20;99.90;;;;;;5053901;28;20212;-58
2022/10/24 00:52:12;;;;;;;5.55;1.38;;;19.10;99.90;;;;;;5054045;28;20224;-58
2022/10/24 00:54:41;;;;;;;4.45;1.30;;;19.10;99.90;;;;;;5053050;28;20205;-58
2022/10/24 00:57:14;;;;;;;5.65;1.48;;;19.10;99.90;;;;;;5053774;28;20209;-58
2022/10/24 00:59:45;;;;;;;4.13;1.40;;;19.10;99.90;;;;;;5053800;28;20627;-58
2022/10/24 01:02:11;;;;;;;9.23;1.52;;;19.10;99.90;;;;;;5053603;28;20260;-58
2022/10/24 01:04:38;;;;;;;8.77;1.08;;;19.00;99.90;;;;;;5052973;28;20231;-58
2022/10/24 01:07:16;;;;;;;6.80;1.48;;;19.00;99.90;;;;;;5053496;28;20321;-59
2022/10/24 01:10:12;;;;;;;4.82;1.38;;;18.90;99.90;;;;;;5053700;28;20201;-58
2022/10/24 01:12:49;;;;;;;8.60;1.60;;;18.90;99.90;;;;;;5050714;28;20225;-58
2022/10/24 01:15:22;;;;;;;5.72;1.83;;;18.90;99.90;;;;;;5052878;28;20221;-58
2022/10/24 01:17:56;;;;;;;8.13;1.15;;;19.00;99.90;;;;;;5053239;28;20205;-58
2022/10/24 01:20:41;;;;;;;11.00;1.63;;;18.90;99.90;;;;;;5053265;28;20565;-58
2022/10/24 01:23:27;;;;;;;7.25;1.50;;;18.90;99.90;;;;;;5053228;28;20709;-58
2022/10/24 01:26:07;;;;;;;6.35;1.73;;;19.00;99.90;;;;;;5052448;28;20221;-59
2022/10/24 01:28:44;;;;;;;5.20;1.35;;;19.00;99.90;;;;;;5053272;28;20205;-59
2022/10/24 01:31:20;;;;;;;8.18;2.55;;;18.90;99.90;;;;;;5053397;28;20205;-58
2022/10/24 01:33:51;;;;;;;9.13;3.70;;;19.00;99.90;;;;;;5052671;28;20228;-59
2022/10/24 01:36:25;;;;;;;10.90;2.20;;;19.00;99.90;;;;;;5052846;28;20232;-59
2022/10/24 01:38:57;;;;;;;5.93;1.63;;;19.00;99.90;;;;;;5052989;28;20205;-58
2022/10/24 01:41:27;;;;;;;8.20;1.75;;;19.00;99.90;;;;;;5052945;28;20212;-58
2022/10/24 01:44:01;;;;;;;5.28;1.50;;;19.00;99.90;;;;;;5052261;28;20205;-58
2022/10/24 01:46:34;;;;;;;5.72;1.50;;;19.00;99.90;;;;;;5071876;22;20237;-60
2022/10/24 01:49:07;;;;;;;9.93;1.83;;;19.10;99.90;;;;;;5037023;28;20212;-60
2022/10/24 01:51:35;;;;;;;5.35;1.80;;;19.10;99.90;;;;;;5053060;28;20225;-61
2022/10/24 01:54:03;;;;;;;4.88;1.52;;;19.10;99.90;;;;;;5052530;28;20213;-60
2022/10/24 01:56:29;;;;;;;7.50;1.90;;;19.00;99.90;;;;;;5053197;28;20256;-60
2022/10/24 01:59:04;;;;;;;8.02;1.77;;;19.00;99.90;;;;;;5052801;28;20210;-60
2022/10/24 02:01:35;;;;;;;5.53;1.70;;;19.00;99.90;;;;;;5053305;28;20216;-59
2022/10/24 02:04:05;;;;;;;4.97;1.30;;;19.10;99.90;;;;;;5052907;28;20589;-60
2022/10/24 02:06:35;;;;;;;3.95;1.45;;;19.10;99.90;;;;;;5052998;28;20225;-60
2022/10/24 02:09:06;;;;;;;7.93;1.77;;;19.10;99.90;;;;;;5052578;28;20202;-61
2022/10/24 02:11:34;;;;;;;3.55;1.40;;;19.00;99.90;;;;;;5052809;28;20213;-60
2022/10/24 02:14:05;;;;;;;7.30;1.58;;;19.00;99.90;;;;;;5051954;28;20205;-60
2022/10/24 02:16:34;;;;;;;6.18;1.58;;;19.00;99.90;;;;;;5052873;28;20230;-60
2022/10/24 02:19:01;;;;;;;5.18;1.50;;;18.90;99.90;;;;;;5052551;28;20206;-60
2022/10/24 02:21:33;;;;;;;7.25;1.60;;;19.00;99.90;;;;;;5052362;28;20206;-60
2022/10/24 02:24:04;;;;;;;5.57;1.67;;;18.90;99.90;;;;;;5051722;28;20205;-60
2022/10/24 02:26:34;;;;;;;7.55;2.08;;;18.90;99.90;;;;;;5052024;28;20232;-60
2022/10/24 02:29:05;;;;;;;9.00;2.33;;;18.90;99.90;;;;;;5052628;28;20232;-60
2022/10/24 02:31:39;;;;;;;6.03;1.75;;;18.90;99.90;;;;;;5051883;28;20604;-60
2022/10/24 02:34:08;;;;;;;6.35;2.05;;;18.90;99.90;;;;;;5051689;28;20216;-60
2022/10/24 02:36:37;;;;;;;6.10;1.73;;;18.90;99.90;;;;;;5051960;28;20229;-62
2022/10/24 02:39:06;;;;;;;7.13;1.98;;;18.90;99.90;;;;;;5051927;28;20696;-61
2022/10/24 02:41:36;;;;;;;8.30;1.70;;;18.90;99.90;;;;;;5052099;28;20541;-60
2022/10/24 02:44:05;;;;;;;6.45;1.73;;;18.80;99.90;;;;;;5051820;28;20205;-60
2022/10/24 02:46:34;;;;;;;5.13;1.90;;;18.80;99.90;;;;;;5051661;28;20624;-60
2022/10/24 02:49:02;;;;;;;6.07;2.45;;;18.80;99.90;;;;;;5052001;28;20224;-60
2022/10/24 02:51:33;;;;;;;6.65;2.15;;;18.80;99.90;;;;;;5051803;28;20235;-61
2022/10/24 02:54:03;;;;;;;6.22;1.90;;;18.80;99.90;;;;;;5051372;28;20213;-60
2022/10/24 02:56:30;;;;;;;5.22;1.90;;;18.80;99.90;;;;;;5051976;28;20236;-60
2022/10/24 02:58:57;;;;;;;6.43;2.15;;;18.80;99.90;;;;;;5052242;28;20217;-60
2022/10/24 03:01:24;;;;;;;7.90;2.00;;;18.90;99.90;;;;;;5051687;28;20212;-60
2022/10/24 03:03:52;;;;;;;9.85;2.50;;;18.80;99.90;;;;;;5051320;28;20206;-63
2022/10/24 03:06:19;;;;;;;7.13;2.28;;;18.90;99.90;;;;;;5051757;28;20232;-62
2022/10/24 03:08:46;;;;;;;10.48;2.30;;;18.90;99.90;;;;;;5051959;28;20213;-62
2022/10/24 03:11:12;;;;;;;7.47;2.22;;;18.90;99.90;;;;;;5055746;28;20220;-61
2022/10/24 03:13:39;;;;;;;9.98;2.45;;;18.90;99.90;;;;;;5055795;28;20271;-62
2022/10/24 03:16:06;;;;;;;6.68;2.00;;;18.90;99.90;;;;;;5055635;28;20228;-61
2022/10/24 03:18:33;;;;;;;8.75;2.47;;;18.90;99.90;;;;;;5055718;28;20610;-62
2022/10/24 03:21:01;;;;;;;7.68;2.88;;;18.90;99.90;;;;;;5056167;28;20201;-62
2022/10/24 03:23:28;;;;;;;9.30;2.58;;;18.80;99.90;;;;;;5055699;28;20202;-60
2022/10/24 03:25:55;;;;;;;11.55;2.65;;;18.80;99.90;;;;;;5054866;28;20256;-60
2022/10/24 03:28:22;;;;;;;11.43;2.45;;;18.80;99.90;;;;;;5055539;28;20213;-62
2022/10/24 03:30:49;;;;;;;8.13;2.63;;;18.80;99.90;;;;;;5055405;28;20553;-62
2022/10/24 03:33:16;;;;;;;8.63;2.55;;;18.90;99.90;;;;;;5055227;28;20228;-60
2022/10/24 03:35:43;;;;;;;7.50;2.47;;;18.90;99.90;;;;;;5054759;28;20229;-60
2022/10/24 03:38:11;;;;;;;13.18;3.00;;;18.90;99.90;;;;;;5055370;28;20206;-62
2022/10/24 03:40:38;;;;;;;9.15;2.55;;;18.80;99.90;;;;;;5055466;28;20206;-62
2022/10/24 03:43:05;;;;;;;9.27;4.00;;;18.70;99.90;;;;;;5055219;28;20579;-62
2022/10/24 03:45:31;;;;;;;11.77;2.80;;;18.70;99.90;;;;;;5054336;28;20237;-62
2022/10/24 03:47:58;;;;;;;6.70;2.67;;;18.70;99.90;;;;;;5055756;28;20204;-62
2022/10/24 03:50:25;;;;;;;9.13;3.17;;;18.80;99.90;;;;;;5055510;28;20209;-62
2022/10/24 03:52:52;;;;;;;9.82;2.45;;;18.70;99.90;;;;;;5054937;28;20723;-62
2022/10/24 03:55:20;;;;;;;7.03;3.03;;;18.60;99.90;;;;;;5054416;28;20214;-62
2022/10/24 03:57:47;;;;;;;9.63;2.58;;;18.60;99.90;;;;;;5055165;28;20202;-62
2022/10/24 04:00:14;;;;;;;11.50;3.22;;;18.60;99.90;;;;;;5054822;28;20654;-63
2022/10/24 04:02:41;;;;;;;7.43;2.83;;;18.60;99.90;;;;;;5055720;28;20202;-60
2022/10/24 04:05:08;;;;;;;9.77;2.53;;;18.60;99.90;;;;;;5054690;28;20255;-60
2022/10/24 04:07:35;;;;;;;6.07;2.38;;;18.60;99.90;;;;;;5054981;28;20214;-60
2022/10/24 04:10:02;;;;;;;9.90;2.60;;;18.60;99.90;;;;;;5054937;28;20224;-60
2022/10/24 04:12:30;;;;;;;12.55;4.03;;;18.50;99.90;;;;;;5054511;28;20225;-62
2022/10/24 04:14:57;;;;;;;10.60;2.38;;;18.50;99.90;;;;;;5053864;28;20206;-60
2022/10/24 04:17:23;;;;;;;9.20;2.40;;;18.60;99.90;;;;;;5054349;28;20634;-60
2022/10/24 04:19:50;;;;;;;8.48;2.78;;;18.60;99.90;;;;;;5054084;28;20205;-60
2022/10/24 04:22:17;;;;;;;14.07;2.67;;;18.60;99.90;;;;;;5054307;28;20649;-61
2022/10/24 04:24:44;;;;;;;8.13;2.35;;;18.70;99.90;;;;;;5053988;28;20206;-60
2022/10/24 04:27:10;;;;;;;9.52;2.13;;;18.70;99.90;;;;;;5054473;28;20229;-60
2022/10/24 04:29:38;;;;;;;8.65;2.30;;;18.70;99.90;;;;;;5054514;28;20684;-60
2022/10/24 04:32:05;;;;;;;9.80;2.70;;;18.70;99.90;;;;;;5054640;28;20220;-60
2022/10/24 04:34:34;;;;;;;5.65;2.20;;;18.70;99.90;;;;;;5054135;28;20216;-60
2022/10/24 04:37:01;;;;;;;9.32;2.83;;;18.70;99.90;;;;;;5054257;28;20675;-63
2022/10/24 04:39:28;;;;;;;9.82;2.88;;;18.80;99.90;;;;;;5054217;28;20235;-61
2022/10/24 04:41:54;;;;;;;7.00;2.90;;;18.80;99.90;;;;;;5053977;28;20201;-61
2022/10/24 04:44:21;;;;;;;8.30;2.90;;;18.80;99.90;;;;;;5053703;28;20212;-63
2022/10/24 04:46:49;;;;;;;10.60;2.70;;;18.80;99.90;;;;;;5053785;28;20233;-61
2022/10/24 04:49:16;;;;;;;10.80;2.75;;;18.80;99.90;;;;;;5054267;28;20206;-61
2022/10/24 04:51:43;;;;;;;6.30;2.40;;;18.80;99.90;;;;;;5054022;28;20691;-61
2022/10/24 04:54:09;;;;;;;6.50;2.13;;;18.80;99.90;;;;;;5053243;28;20233;-61
2022/10/24 04:56:36;;;;;;;7.45;2.17;;;18.90;99.90;;;;;;5053736;28;20229;-61
2022/10/24 04:59:03;;;;;;;8.10;2.20;;;18.90;99.90;;;;;;5054025;28;20213;-61
2022/10/24 05:01:30;;;;;;;8.02;2.35;;;18.90;99.90;;;;;;5054045;28;20209;-62
2022/10/24 05:03:58;;;;;;;7.18;2.40;;;18.90;99.90;;;;;;5053264;28;20598;-61
2022/10/24 05:06:24;;;;;;;10.43;2.30;;;18.90;99.90;;;;;;5053579;28;20225;-60
2022/10/24 05:08:51;;;;;;;10.50;2.85;;;18.90;99.90;;;;;;5053632;28;20277;-61
2022/10/24 05:11:18;;;;;;;7.38;2.53;;;18.90;99.90;;;;;;5054933;28;20205;-61
2022/10/24 05:13:45;;;;;;;4.82;2.00;;;18.90;99.90;;;;;;5054115;28;20608;-61
2022/10/24 05:16:11;;;;;;;7.90;2.53;;;18.90;99.90;;;;;;5052880;28;20713;-61
2022/10/24 05:18:38;;;;;;;8.15;2.65;;;18.90;99.90;;;;;;5053668;28;20213;-61
2022/10/24 05:21:06;;;;;;;9.80;2.30;;;19.00;99.90;;;;;;5053265;28;20692;-61
2022/10/24 05:23:33;;;;;;;7.75;2.38;;;19.00;99.90;;;;;;5053360;28;20212;-61
2022/10/24 05:25:59;;;;;;;6.80;2.35;;;19.10;99.90;;;;;;5052781;28;20225;-60
2022/10/24 05:28:26;;;;;;;9.32;2.53;;;19.10;99.90;;;;;;5053283;28;20223;-61
2022/10/24 05:30:53;;;;;;;9.95;2.55;;;19.20;99.90;;;;;;5053624;28;20229;-61
2022/10/24 05:33:22;;;;;;;6.82;2.25;;;19.20;99.90;;;;;;5052393;28;20225;-60
2022/10/24 05:35:49;;;;;;;6.75;2.55;;;19.20;99.90;;;;;;5052266;28;20230;-61
2022/10/24 05:38:17;;;;;;;6.35;2.33;;;19.20;99.90;;;;;;5053033;28;20205;-61
2022/10/24 05:40:46;;;;;;;12.60;2.80;;;19.20;99.90;;;;;;5053027;28;20205;-61
2022/10/24 05:43:13;;;;;;;9.88;2.10;;;19.20;99.90;;;;;;5052845;28;20669;-60
2022/10/24 05:45:40;;;;;;;12.40;2.75;;;19.30;99.90;;;;;;5051988;28;20230;-61
2022/10/24 05:48:07;;;;;;;8.68;2.50;;;19.30;99.90;;;;;;5052590;28;20673;-61
2022/10/24 05:50:34;;;;;;;7.38;2.13;;;19.40;99.90;;;;;;5052781;28;20673;-61
2022/10/24 05:53:00;;;;;;;10.57;2.33;;;19.30;99.90;;;;;;5052634;28;20225;-61
2022/10/24 05:55:30;;;;;;;6.72;2.00;;;19.30;99.90;;;;;;5052103;28;20705;-61
2022/10/24 05:57:56;;;;;;;6.28;2.17;;;19.40;99.90;;;;;;5052805;28;20296;-61
2022/10/24 06:00:23;;;;;;;3.95;1.60;;;19.40;99.90;;;;;;5052786;28;20213;-61
2022/10/24 06:02:50;;;;;;;7.35;2.35;;;19.40;99.90;;;;;;5052591;28;20645;-61
2022/10/24 06:05:17;;;;;;;5.90;2.38;;;19.40;99.90;;;;;;5051693;28;20209;-61
2022/10/24 06:07:44;;;;;;;8.80;2.47;;;19.30;99.90;;;;;;5052332;28;20703;-61
2022/10/24 06:10:12;;;;;;;7.05;2.40;;;19.30;99.90;;;;;;5052689;28;20255;-61
2022/10/24 06:12:40;;;;;;;7.57;2.10;;;19.30;99.90;;;;;;5052276;28;20255;-61
2022/10/24 06:15:08;;;;;;;5.93;1.95;;;19.30;99.90;;;;;;5051724;28;20752;-65
2022/10/24 06:17:36;;;;;;;9.05;2.97;;;19.30;99.90;;;;;;5052456;28;20210;-61
2022/10/24 06:20:03;;;;;;;9.95;2.40;;;19.40;99.90;;;;;;5052667;28;20228;-61
2022/10/24 06:22:29;;;;;;;11.48;2.97;;;19.40;99.90;;;;;;5052360;28;20202;-68
2022/10/24 06:24:57;;;;;;;13.00;2.72;;;19.40;99.90;;;;;;5051758;28;20197;-61
2022/10/24 06:27:24;;;;;;;9.63;2.90;;;19.40;99.90;;;;;;5052039;28;20232;-61
2022/10/24 06:29:52;;;;;;;9.82;2.63;;;19.10;99.90;;;;;;5052217;28;20205;-61
2022/10/24 06:32:19;;;;;;;8.50;2.88;;;18.80;99.90;;;;;;5051946;28;20213;-60
2022/10/24 06:34:45;;;;;;;11.45;2.78;;;18.60;99.90;;;;;;5051630;28;20229;-61
2022/10/24 06:37:12;;;;;;;6.30;2.38;;;18.50;99.90;;;;;;5051929;28;20222;-61
2022/10/24 06:39:39;;;;;;;8.13;2.03;;;18.30;99.90;;;;;;5052224;28;20214;-61
2022/10/24 06:42:06;;;;;;;5.13;2.05;;;18.30;99.90;;;;;;5051624;28;20689;-61
2022/10/24 06:44:32;;;;;;;7.75;2.30;;;18.30;99.90;;;;;;5051342;28;20202;-61
2022/10/24 06:47:01;;;;;;;6.97;2.08;;;18.30;99.90;;;;;;5051474;28;20717;-61
2022/10/24 06:49:27;;;;;;;7.75;2.78;;;18.40;99.90;;;;;;5052093;28;20216;-61
2022/10/24 06:51:54;;;;;;;9.52;2.38;;;18.30;99.90;;;;;;5052150;28;20205;-60
2022/10/24 06:54:21;;;;;;;9.40;2.80;;;18.40;99.90;;;;;;5050954;28;20221;-61
2022/10/24 06:56:47;;;;;;;11.80;2.45;;;18.30;99.90;;;;;;5051667;28;20229;-61
2022/10/24 06:59:16;;;;;;;7.45;2.30;;;18.30;99.90;;;;;;5052004;28;20224;-60
2022/10/24 07:01:43;;;;;;;7.05;2.33;;;18.30;99.90;;;;;;5051987;28;20205;-61
2022/10/24 07:04:11;;;;;;;8.15;2.63;;;18.30;99.90;;;;;;5051289;28;20197;-61
2022/10/24 07:06:38;;;;;;;9.70;2.72;;;18.30;99.90;;;;;;5051430;28;20387;-61
2022/10/24 07:09:06;;;;;;;8.20;2.70;;;18.20;99.90;;;;;;5046970;28;20581;-63
2022/10/24 07:11:33;;;;;;;8.20;2.65;;;18.30;99.90;;;;;;5049253;28;20573;-62
2022/10/24 07:14:00;;;;;;;9.38;2.95;;;18.30;99.90;;;;;;5050226;28;20303;-60
2022/10/24 07:16:27;;;;;;;8.35;2.63;;;18.30;99.90;;;;;;5049931;28;20229;-61
2022/10/24 07:18:53;;;;;;;11.98;3.05;;;18.30;99.90;;;;;;5050139;28;20213;-60
2022/10/24 07:21:23;;;;;;;7.85;2.40;;;18.30;99.90;;;;;;5049910;28;20212;-61
2022/10/24 07:23:51;;;;;;;6.28;2.60;;;18.30;99.90;;;;;;5050564;28;20260;-61
2022/10/24 07:26:18;;;;;;;7.45;2.58;;;18.40;99.90;;;;;;5049595;28;20266;-62
2022/10/24 07:28:46;;;;;;;4.57;2.58;;;18.40;99.90;;;;;;5050517;28;20304;-62
2022/10/24 07:31:17;;;;;;;8.05;2.80;;;18.40;99.90;;;;;;5049941;28;20584;-61
2022/10/24 07:33:44;;;;;;;10.80;3.08;;;18.30;99.90;;;;;;5050005;28;20697;-61
2022/10/24 07:36:14;;;;;;;7.38;2.50;;;18.10;99.90;;;;;;5049566;28;20229;-60
2022/10/24 07:38:42;;;;;;;11.68;2.47;;;18.10;99.90;;;;;;5050443;28;20467;-60
2022/10/24 07:41:09;;;;;;;8.20;2.65;;;17.90;99.90;;;;;;5049523;28;20205;-60
2022/10/24 07:43:36;;;;;;;6.03;2.80;;;17.80;99.90;;;;;;5050260;28;20680;-61
2022/10/24 07:46:06;;;;;;;39.47;29.92;;;17.90;99.90;;;;;;5064539;22;20229;-56
2022/10/24 07:48:33;;;;;;;11.82;5.18;;;17.90;99.90;;;;;;5050187;28;20205;-57
2022/10/24 07:50:59;;;;;;;7.63;3.50;;;18.10;99.90;;;;;;5029882;28;20249;-56
2022/10/24 07:53:26;;;;;;;8.75;2.80;;;18.30;99.90;;;;;;5029463;28;20737;-55
2022/10/24 07:55:54;;;;;;;144.95;122.25;;;18.30;99.90;;;;;;5031081;28;20704;-54
2022/10/24 07:58:21;;;;;;;10.23;4.28;;;18.50;99.90;;;;;;5034173;28;20245;-55
2022/10/24 08:00:48;;;;;;;9.68;2.72;;;18.60;99.90;;;;;;5033827;28;20619;-58
2022/10/24 08:03:14;;;;;;;8.20;2.38;;;18.70;99.90;;;;;;5033532;28;20210;-55
2022/10/24 08:05:41;;;;;;;9.40;2.40;;;18.80;99.90;;;;;;5032719;28;20214;-55
2022/10/24 08:08:08;;;;;;;6.65;2.20;;;18.80;99.90;;;;;;5033103;28;20678;-57
2022/10/24 08:10:35;;;;;;;4.82;2.05;;;18.80;99.90;;;;;;5034034;28;20206;-57
2022/10/24 08:13:04;;;;;;;7.22;2.47;;;18.70;99.90;;;;;;5033240;28;20301;-56
2022/10/24 08:15:30;;;;;;;6.75;2.00;;;18.70;99.90;;;;;;5032599;28;20720;-58
2022/10/24 08:17:57;;;;;;;6.07;2.05;;;18.60;99.90;;;;;;5033602;28;20689;-55
2022/10/24 08:20:25;;;;;;;9.27;2.20;;;18.50;99.90;;;;;;5033450;28;20614;-55
2022/10/24 08:22:51;;;;;;;5.80;2.03;;;18.50;99.90;;;;;;5032756;28;20202;-55
2022/10/24 08:25:18;;;;;;;7.43;2.13;;;18.50;99.90;;;;;;5032601;28;20206;-56
2022/10/24 08:27:45;;;;;;;10.57;2.40;;;18.50;99.90;;;;;;5033634;28;20227;-56
2022/10/24 08:30:16;;;;;;;5.40;1.42;;;18.50;99.90;;;;;;5033282;28;20266;-55
2022/10/24 08:32:43;;;;;;;9.00;6.15;;;18.50;99.90;;;;;;5033080;28;20212;-56
2022/10/24 08:35:09;;;;;;;11.10;1.90;;;18.40;99.90;;;;;;5032701;28;20221;-55
2022/10/24 08:37:37;;;;;;;4.18;1.65;;;18.30;99.90;;;;;;5033610;28;20317;-58
2022/10/24 08:40:06;;;;;;;6.63;1.60;;;18.20;99.90;;;;;;5033457;28;20238;-57
2022/10/24 08:42:33;;;;;;;5.28;1.42;;;18.20;99.90;;;;;;5032643;28;20210;-58
2022/10/24 08:45:00;;;;;;;5.97;2.05;;;18.10;99.90;;;;;;5032534;28;20206;-58
2022/10/24 08:47:35;;;;;;;8.55;2.00;;;18.30;99.90;;;;;;5032769;28;20295;-56
2022/10/24 08:50:09;;;;;;;8.25;2.15;;;18.40;99.90;;;;;;5032741;28;20578;-57
2022/10/24 08:52:42;;;;;;;7.28;2.05;;;18.50;99.90;;;;;;5032870;28;20210;-58
2022/10/24 08:55:13;;;;;;;8.18;2.05;;;18.60;99.90;;;;;;5031571;28;20295;-57
2022/10/24 08:57:41;;;;;;;5.50;2.10;;;18.80;99.90;;;;;;5032645;28;20321;-57
2022/10/24 09:00:24;;;;;;;7.10;1.83;;;18.80;99.90;;;;;;5032538;28;20581;-58
2022/10/24 09:02:57;;;;;;;4.22;1.50;;;18.90;99.90;;;;;;5032469;28;20213;-57
2022/10/24 09:05:29;;;;;;;5.88;1.85;;;18.90;99.90;;;;;;5031697;28;20210;-57
2022/10/24 09:08:01;;;;;;;6.82;2.05;;;18.90;99.90;;;;;;5031419;28;20210;-58
2022/10/24 09:10:36;;;;;;;6.40;1.98;;;18.90;99.90;;;;;;5032600;28;20679;-57
2022/10/24 09:13:08;;;;;;;6.35;1.90;;;19.00;99.90;;;;;;5032231;28;20206;-57
2022/10/24 09:15:35;;;;;;;9.10;4.20;;;19.00;99.90;;;;;;5031509;28;20230;-57
2022/10/24 09:18:03;;;;;;;37.10;24.90;;;19.10;99.90;;;;;;5032569;28;20563;-58
2022/10/24 09:20:32;;;;;;;8.55;3.15;;;19.10;99.90;;;;;;5033119;28;20206;-56
2022/10/24 09:23:02;;;;;;;6.88;2.00;;;19.20;99.90;;;;;;5032857;28;20670;-56
2022/10/24 09:25:32;;;;;;;3.83;1.73;;;19.10;99.90;;;;;;5032711;28;20642;-56
2022/10/24 09:28:03;;;;;;;8.02;1.75;;;19.10;99.90;;;;;;5033299;28;20217;-56
2022/10/24 09:30:30;;;;;;;4.70;1.88;;;19.20;99.90;;;;;;5033630;28;20569;-56
2022/10/24 09:32:59;;;;;;;3.30;1.60;;;19.20;99.90;;;;;;5033000;28;20264;-57
2022/10/24 09:35:30;;;;;;;5.13;2.00;;;19.20;99.90;;;;;;5032182;28;20222;-56
2022/10/24 09:37:58;;;;;;;4.10;1.70;;;19.10;99.90;;;;;;5033163;28;20253;-56
2022/10/24 09:40:27;;;;;;;8.88;1.83;;;19.00;99.90;;;;;;5034001;28;20210;-55
2022/10/24 09:42:58;;;;;;;2.97;1.48;;;19.00;99.90;;;;;;5033174;28;20210;-57
2022/10/24 09:45:38;;;;;;;6.57;1.73;;;19.10;99.90;;;;;;5032226;28;20581;-57
2022/10/24 09:48:16;;;;;;;6.43;1.67;;;19.00;99.90;;;;;;5032651;28;20276;-56
2022/10/24 09:50:45;;;;;;;8.48;1.90;;;18.90;99.90;;;;;;5032647;28;20578;-57
2022/10/24 09:53:23;;;;;;;8.00;2.10;;;18.80;99.90;;;;;;5032851;28;20206;-57
2022/10/24 09:55:52;;;;;;;6.97;1.80;;;18.80;99.90;;;;;;5032081;28;20261;-57
2022/10/24 09:58:28;;;;;;;5.05;2.30;;;18.80;99.90;;;;;;5032821;28;20206;-58
2022/10/24 10:01:04;;;;;;;8.65;2.20;;;18.80;99.90;;;;;;5032903;28;20206;-56
2022/10/24 10:03:31;;;;;;;5.35;2.30;;;18.80;99.90;;;;;;5032639;28;20216;-57
2022/10/24 10:06:04;;;;;;;5.70;1.73;;;18.80;99.90;;;;;;5031736;28;20233;-56
2022/10/24 10:08:33;;;;;;;7.10;1.90;;;18.80;99.90;;;;;;5032941;28;20210;-56
2022/10/24 10:11:04;;;;;;;4.80;1.60;;;18.90;99.90;;;;;;5032697;28;20619;-56
2022/10/24 10:13:36;;;;;;;4.57;1.73;;;18.90;99.90;;;;;;5032885;28;20214;-56
2022/10/24 10:16:06;;;;;;;4.82;1.77;;;18.90;99.90;;;;;;5032103;28;20686;-56
2022/10/24 10:18:42;;;;;;;3.75;1.50;;;19.00;99.90;;;;;;5032141;28;20207;-58
2022/10/24 10:21:13;;;;;;;3.22;1.40;;;19.00;99.90;;;;;;5032076;28;20224;-56
2022/10/24 10:23:41;;;;;;;7.32;1.70;;;19.10;99.90;;;;;;5031857;28;20674;-56
2022/10/24 10:26:17;;;;;;;4.68;1.73;;;19.20;99.90;;;;;;5031447;28;20233;-56
2022/10/24 10:28:50;;;;;;;5.80;1.80;;;19.40;99.90;;;;;;5032234;28;20267;-56
2022/10/24 10:31:19;;;;;;;8.88;1.65;;;19.50;99.90;;;;;;5031786;28;20217;-56
2022/10/24 10:33:57;;;;;;;6.20;1.70;;;19.70;99.90;;;;;;5032312;28;20584;-57
2022/10/24 10:36:32;;;;;;;6.85;3.72;;;19.70;99.90;;;;;;5031308;28;20295;-58
2022/10/24 10:39:17;;;;;;;3.30;1.90;;;19.80;99.90;;;;;;5032080;28;20206;-58
2022/10/24 10:41:49;;;;;;;4.22;1.50;;;19.80;99.90;;;;;;5032060;28;20213;-56
2022/10/24 10:44:39;;;;;;;5.22;1.92;;;19.80;99.90;;;;;;5031757;28;20214;-57
2022/10/24 10:47:15;;;;;;;5.50;1.98;;;19.90;99.90;;;;;;5031757;28;20241;-56
2022/10/24 10:49:42;;;;;;;6.90;1.75;;;20.00;99.90;;;;;;5031927;28;20216;-56
2022/10/24 10:52:13;;;;;;;4.43;1.50;;;20.10;99.90;;;;;;5031891;28;20559;-56
2022/10/24 10:54:57;;;;;;;8.38;1.52;;;20.20;99.90;;;;;;5031090;28;20230;-55
2022/10/24 10:57:30;;;;;;;3.45;1.63;;;20.30;99.90;;;;;;5031678;28;20226;-56
2022/10/24 11:00:06;;;;;;;3.72;1.48;;;20.40;99.90;;;;;;5031366;28;20210;-55
2022/10/24 11:02:57;;;;;;;5.57;1.88;;;20.50;99.90;;;;;;5031679;28;20213;-56
2022/10/24 11:05:34;;;;;;;4.00;1.88;;;20.50;99.90;;;;;;5020623;28;20206;-56
2022/10/24 11:08:11;;;;;;;3.70;1.52;;;20.50;99.90;;;;;;5031358;28;20716;-55
2022/10/24 11:10:43;;;;;;;5.22;1.95;;;20.50;99.90;;;;;;5032063;28;20217;-56
2022/10/24 11:13:23;;;;;;;4.22;2.75;;;20.50;99.90;;;;;;5032230;28;20210;-57
2022/10/24 11:15:54;;;;;;;4.65;1.77;;;20.40;99.90;;;;;;5030667;28;20237;-58
2022/10/24 11:18:25;;;;;;;6.00;1.58;;;20.40;99.90;;;;;;5031762;28;20228;-57
2022/10/24 11:20:56;;;;;;;3.75;1.45;;;20.50;99.90;;;;;;5031610;28;20221;-57
2022/10/24 11:23:31;;;;;;;4.40;1.50;;;20.50;99.90;;;;;;5031647;28;20650;-56
2022/10/24 11:26:02;;;;;;;4.45;1.85;;;20.60;99.90;;;;;;5030474;28;20226;-58
2022/10/24 11:28:34;;;;;;;7.45;1.95;;;20.60;99.90;;;;;;5031391;28;20206;-55
2022/10/24 11:31:06;;;;;;;6.82;1.67;;;20.60;99.90;;;;;;5033278;28;20210;-56
2022/10/24 11:33:40;;;;;;;5.20;2.30;;;20.70;99.90;;;;;;5035383;28;20256;-55
2022/10/24 11:36:12;;;;;;;4.03;1.35;;;20.70;99.90;;;;;;5034489;28;20237;-56
2022/10/24 11:38:46;;;;;;;6.95;1.60;;;20.60;99.90;;;;;;5035160;28;20202;-56
2022/10/24 11:41:32;;;;;;;4.53;1.40;;;20.50;99.90;;;;;;5035706;28;20229;-56
2022/10/24 11:44:05;;;;;;;7.82;1.80;;;20.60;99.90;;;;;;5035307;28;20660;-56
2022/10/24 11:46:37;;;;;;;3.70;1.80;;;20.60;99.90;;;;;;5034542;28;20234;-56
2022/10/24 11:49:13;;;;;;;5.80;1.35;;;20.70;99.90;;;;;;5035007;28;20210;-56
2022/10/24 11:51:44;;;;;;;3.55;1.40;;;20.70;99.90;;;;;;5035287;28;20226;-56
2022/10/24 11:54:18;;;;;;;3.88;1.52;;;20.60;99.90;;;;;;5035310;28;20206;-56
2022/10/24 11:56:49;;;;;;;2.95;1.50;;;20.60;99.90;;;;;;5034107;28;20225;-56
2022/10/24 11:59:22;;;;;;;3.42;1.10;;;20.70;99.90;;;;;;5034972;28;20213;-56
2022/10/24 12:02:18;;;;;;;3.38;1.35;;;20.80;99.90;;;;;;5034931;28;20236;-56
2022/10/24 12:05:13;;;;;;;5.95;1.80;;;20.90;99.90;;;;;;5034104;28;20206;-57
2022/10/24 12:08:00;;;;;;;2.80;1.30;;;21.00;99.90;;;;;;5021014;28;20226;-57
2022/10/24 12:10:45;;;;;;;1.95;1.30;;;21.10;99.90;;;;;;5034969;28;20214;-56
2022/10/24 12:13:39;;;;;;;4.25;1.60;;;21.20;99.90;;;;;;5034799;28;20210;-57
2022/10/24 12:16:15;;;;;;;6.03;1.33;;;21.30;99.90;;;;;;5033636;28;20230;-56
2022/10/24 12:18:45;;;;;;;5.53;1.35;;;21.30;99.90;;;;;;5034633;28;20209;-56
2022/10/24 12:21:15;;;;;;;6.25;1.50;;;21.30;99.90;;;;;;5034502;28;20214;-57
2022/10/24 12:23:52;;;;;;;4.22;1.30;;;21.30;99.90;;;;;;5034417;28;20709;-57
2022/10/24 12:26:25;;;;;;;5.22;1.48;;;21.30;99.90;;;;;;5033615;28;20303;-56
2022/10/24 12:28:56;;;;;;;3.85;1.20;;;21.20;99.90;;;;;;5034679;28;20217;-58
2022/10/24 12:31:28;;;;;;;4.20;1.30;;;21.20;99.90;;;;;;5034575;28;20210;-55
2022/10/24 12:34:43;;;;;;;5.53;1.33;;;21.20;99.90;;;;;;5034441;28;20230;-56
2022/10/24 12:37:13;;;;;;;2.13;1.20;;;21.20;99.90;;;;;;5034461;28;20233;-56
2022/10/24 12:39:42;;;;;;;4.05;1.30;;;21.00;99.90;;;;;;5034305;28;20214;-55
2022/10/24 12:42:16;;;;;;;2.53;1.63;;;20.90;99.90;;;;;;5033889;28;20569;-56
2022/10/24 12:44:49;;;;;;;3.17;1.20;;;20.90;99.90;;;;;;5033418;28;20549;-57
2022/10/24 12:47:28;;;;;;;6.57;1.83;;;20.80;99.90;;;;;;5034254;28;20242;-57
2022/10/24 12:49:55;;;;;;;2.95;1.50;;;20.80;99.90;;;;;;5034423;28;20209;-58
2022/10/24 12:52:51;;;;;;;2.33;1.00;;;20.80;99.90;;;;;;5034125;28;20226;-58
2022/10/24 12:55:47;;;;;;;3.90;1.30;;;20.80;99.90;;;;;;4990067;28;20229;-58
2022/10/24 12:58:24;;;;;;;4.72;1.52;;;20.70;99.90;;;;;;5033595;28;20213;-58
2022/10/24 13:00:55;;;;;;;3.72;1.25;;;20.70;99.90;;;;;;5034406;28;20205;-58